createdAt,value
2018-04-19T00:00:34.083Z,14.48
2018-04-19T00:01:36.772Z,14.43
2018-04-19T00:02:34.309Z,14.48
2018-04-19T00:03:34.066Z,14.44
2018-04-19T00:04:34.066Z,14.3
2018-04-19T00:05:34.336Z,14.36
2018-04-19T00:06:34.314Z,14.41
2018-04-19T00:07:34.303Z,14.35
2018-04-19T00:08:34.317Z,14.3
2018-04-19T00:09:34.082Z,14.36
2018-04-19T00:10:34.326Z,14.35
2018-04-19T00:11:34.319Z,14.35
2018-04-19T00:12:34.309Z,14.28
2018-04-19T00:13:34.067Z,14.28
2018-04-19T00:14:34.061Z,14.33
2018-04-19T00:15:34.060Z,14.37
2018-04-19T00:16:34.358Z,14.36
2018-04-19T00:17:34.291Z,14.32
2018-04-19T00:18:34.313Z,14.22
2018-04-19T00:19:34.056Z,14.23
2018-04-19T00:20:34.301Z,14.22
2018-04-19T00:21:34.295Z,14.17
2018-04-19T00:22:34.307Z,14.12
2018-04-19T00:23:34.301Z,14.14
2018-04-19T00:24:34.290Z,14.14
2018-04-19T00:25:34.289Z,14.1
2018-04-19T00:26:34.300Z,14.07
2018-04-19T00:27:34.047Z,14.07
2018-04-19T00:28:34.294Z,14.12
2018-04-19T00:29:34.296Z,14.14
2018-04-19T00:30:34.334Z,14.08
2018-04-19T00:31:38.897Z,13.95
2018-04-19T00:32:34.302Z,14.07
2018-04-19T00:33:34.365Z,13.93
2018-04-19T00:34:34.101Z,14.04
2018-04-19T00:35:34.053Z,13.95
2018-04-19T00:36:34.292Z,13.97
2018-04-19T00:37:34.285Z,14.04
2018-04-19T00:38:34.292Z,13.99
2018-04-19T00:39:34.031Z,13.85
2018-04-19T00:40:34.284Z,13.95
2018-04-19T00:41:34.013Z,13.86
2018-04-19T00:42:34.255Z,13.81
2018-04-19T00:43:34.270Z,13.81
2018-04-19T00:44:34.277Z,13.79
2018-04-19T00:45:34.271Z,13.79
2018-04-19T00:46:34.044Z,13.68
2018-04-19T00:47:34.858Z,13.79
2018-04-19T00:48:34.274Z,13.74
2018-04-19T00:49:34.282Z,13.77
2018-04-19T00:50:34.248Z,13.79
2018-04-19T00:51:34.015Z,13.77
2018-04-19T00:52:34.001Z,13.87
2018-04-19T00:53:34.264Z,13.81
2018-04-19T00:54:34.009Z,13.81
2018-04-19T00:55:34.007Z,13.79
2018-04-19T00:56:34.001Z,13.86
2018-04-19T00:57:34.253Z,13.87
2018-04-19T00:58:34.021Z,13.83
2018-04-19T00:59:34.008Z,13.83
2018-04-19T01:00:34.248Z,13.78
2018-04-19T01:01:34.011Z,13.78
2018-04-19T01:02:35.831Z,13.72
2018-04-19T01:03:34.232Z,13.72
2018-04-19T01:04:33.972Z,13.71
2018-04-19T01:05:34.232Z,13.7
2018-04-19T01:06:34.020Z,13.74
2018-04-19T01:07:34.231Z,13.7
2018-04-19T01:08:34.223Z,13.72
2018-04-19T01:09:33.725Z,13.7
2018-04-19T01:10:33.973Z,13.68
2018-04-19T01:11:34.217Z,13.71
2018-04-19T01:12:33.960Z,13.71
2018-04-19T01:13:33.957Z,13.72
2018-04-19T01:14:33.971Z,13.74
2018-04-19T01:15:33.964Z,13.67
2018-04-19T01:16:33.971Z,13.63
2018-04-19T01:17:38.245Z,13.68
2018-04-19T01:18:34.203Z,13.7
2018-04-19T01:19:34.212Z,13.67
2018-04-19T01:20:34.213Z,13.63
2018-04-19T01:21:34.202Z,13.72
2018-04-19T01:22:34.208Z,13.67
2018-04-19T01:23:34.213Z,13.62
2018-04-19T01:24:34.205Z,13.56
2018-04-19T01:25:34.223Z,13.63
2018-04-19T01:26:34.210Z,13.6
2018-04-19T01:27:33.974Z,13.62
2018-04-19T01:28:33.933Z,13.6
2018-04-19T01:29:34.176Z,13.52
2018-04-19T01:30:34.181Z,13.52
2018-04-19T01:31:34.188Z,13.54
2018-04-19T01:32:33.680Z,13.47
2018-04-19T01:33:34.928Z,13.54
2018-04-19T01:34:33.931Z,13.44
2018-04-19T01:35:34.177Z,13.37
2018-04-19T01:36:33.918Z,13.39
2018-04-19T01:37:34.175Z,13.37
2018-04-19T01:38:33.929Z,13.35
2018-04-19T01:39:34.168Z,13.3
2018-04-19T01:40:33.908Z,13.27
2018-04-19T01:41:34.169Z,13.27
2018-04-19T01:42:34.155Z,13.22
2018-04-19T01:43:34.154Z,13.15
2018-04-19T01:44:34.159Z,13.12
2018-04-19T01:45:33.902Z,13.11
2018-04-19T01:46:33.899Z,13.04
2018-04-19T01:47:33.911Z,12.98
2018-04-19T01:48:36.013Z,13.04
2018-04-19T01:49:34.155Z,13.01
2018-04-19T01:50:33.905Z,13.03
2018-04-19T01:51:34.158Z,12.97
2018-04-19T01:52:33.891Z,13
2018-04-19T01:53:34.133Z,13.01
2018-04-19T01:54:33.885Z,12.98
2018-04-19T01:55:34.138Z,12.95
2018-04-19T01:56:34.142Z,12.95
2018-04-19T01:57:34.129Z,12.94
2018-04-19T01:58:34.125Z,12.83
2018-04-19T01:59:33.877Z,12.9
2018-04-19T02:00:34.136Z,12.79
2018-04-19T02:01:33.876Z,12.82
2018-04-19T02:02:34.124Z,12.8
2018-04-19T02:03:35.115Z,12.82
2018-04-19T02:04:33.860Z,12.86
2018-04-19T02:05:33.865Z,12.79
2018-04-19T02:06:33.872Z,12.78
2018-04-19T02:07:34.116Z,12.79
2018-04-19T02:08:34.106Z,12.78
2018-04-19T02:09:33.857Z,12.82
2018-04-19T02:10:33.603Z,12.85
2018-04-19T02:11:34.099Z,12.83
2018-04-19T02:12:34.102Z,12.86
2018-04-19T02:13:33.843Z,12.83
2018-04-19T02:14:34.104Z,12.82
2018-04-19T02:15:33.849Z,12.83
2018-04-19T02:16:34.086Z,12.8
2018-04-19T02:17:34.081Z,12.79
2018-04-19T02:18:34.082Z,12.75
2018-04-19T02:19:34.080Z,12.82
2018-04-19T02:20:34.082Z,12.72
2018-04-19T02:21:34.077Z,12.73
2018-04-19T02:22:33.822Z,12.73
2018-04-19T02:23:33.832Z,12.76
2018-04-19T02:24:33.824Z,12.68
2018-04-19T02:25:33.573Z,12.72
2018-04-19T02:26:34.066Z,12.67
2018-04-19T02:27:33.828Z,12.7
2018-04-19T02:28:34.078Z,12.68
2018-04-19T02:29:33.818Z,12.64
2018-04-19T02:30:33.819Z,12.65
2018-04-19T02:31:33.835Z,12.67
2018-04-19T02:32:34.071Z,12.68
2018-04-19T02:33:33.822Z,12.58
2018-04-19T02:34:33.809Z,12.62
2018-04-19T02:35:34.047Z,12.61
2018-04-19T02:36:33.805Z,12.61
2018-04-19T02:37:34.052Z,12.61
2018-04-19T02:38:34.038Z,12.53
2018-04-19T02:39:34.037Z,12.58
2018-04-19T02:40:33.536Z,12.57
2018-04-19T02:41:33.788Z,12.64
2018-04-19T02:42:33.783Z,12.61
2018-04-19T02:43:33.532Z,12.58
2018-04-19T02:44:34.029Z,12.58
2018-04-19T02:45:33.804Z,12.6
2018-04-19T02:46:34.044Z,12.61
2018-04-19T02:47:34.027Z,12.54
2018-04-19T02:48:33.783Z,12.53
2018-04-19T02:49:33.763Z,12.46
2018-04-19T02:50:34.205Z,12.46
2018-04-19T02:51:34.010Z,12.46
2018-04-19T02:52:33.766Z,12.5
2018-04-19T02:53:34.009Z,12.49
2018-04-19T02:54:34.013Z,12.43
2018-04-19T02:55:33.757Z,12.49
2018-04-19T02:56:33.513Z,12.47
2018-04-19T02:57:34.009Z,12.47
2018-04-19T02:58:33.742Z,12.46
2018-04-19T02:59:33.995Z,12.46
2018-04-19T03:00:33.759Z,12.45
2018-04-19T03:01:33.746Z,12.47
2018-04-19T03:02:33.994Z,12.46
2018-04-19T03:03:33.486Z,12.45
2018-04-19T03:04:35.639Z,12.43
2018-04-19T03:05:33.977Z,12.4
2018-04-19T03:06:33.982Z,12.37
2018-04-19T03:07:33.974Z,12.39
2018-04-19T03:08:33.722Z,12.47
2018-04-19T03:09:33.718Z,12.35
2018-04-19T03:10:33.718Z,12.39
2018-04-19T03:11:33.713Z,12.31
2018-04-19T03:12:33.813Z,12.29
2018-04-19T03:13:33.959Z,12.31
2018-04-19T03:14:33.959Z,12.39
2018-04-19T03:15:33.949Z,12.35
2018-04-19T03:16:33.952Z,12.36
2018-04-19T03:17:33.956Z,12.4
2018-04-19T03:18:33.703Z,12.39
2018-04-19T03:19:33.944Z,12.29
2018-04-19T03:20:33.983Z,12.36
2018-04-19T03:21:33.705Z,12.32
2018-04-19T03:22:33.935Z,12.32
2018-04-19T03:23:33.684Z,12.32
2018-04-19T03:24:33.930Z,12.36
2018-04-19T03:25:33.681Z,12.36
2018-04-19T03:26:33.669Z,12.32
2018-04-19T03:27:33.926Z,12.32
2018-04-19T03:28:33.668Z,12.32
2018-04-19T03:29:33.664Z,12.32
2018-04-19T03:37:37.224Z,12.22
2018-04-19T03:38:27.771Z,12.22
2018-04-19T03:39:27.519Z,12.18
2018-04-19T03:40:27.757Z,12.21
2018-04-19T03:41:27.252Z,12.22
2018-04-19T03:42:27.495Z,12.24
2018-04-19T03:43:27.751Z,12.28
2018-04-19T03:44:27.739Z,12.24
2018-04-19T03:45:27.487Z,12.24
2018-04-19T03:46:27.489Z,12.2
2018-04-19T03:47:27.730Z,12.17
2018-04-19T03:48:27.728Z,12.15
2018-04-19T03:49:27.483Z,12.22
2018-04-19T03:50:27.722Z,12.15
2018-04-19T03:51:27.470Z,12.18
2018-04-19T03:52:27.724Z,12.24
2018-04-19T03:53:27.968Z,12.21
2018-04-19T03:54:27.711Z,12.36
2018-04-19T03:55:27.745Z,12.32
2018-04-19T03:56:27.464Z,12.31
2018-04-19T03:57:27.705Z,12.31
2018-04-19T03:58:27.702Z,12.31
2018-04-19T03:59:27.458Z,12.32
2018-04-19T04:00:27.455Z,12.35
2018-04-19T04:01:27.699Z,12.29
2018-04-19T04:02:27.701Z,12.27
2018-04-19T04:03:27.192Z,12.15
2018-04-19T04:04:27.691Z,12.18
2018-04-19T04:05:27.459Z,12.15
2018-04-19T04:06:27.449Z,12.18
2018-04-19T04:07:27.698Z,12.15
2018-04-19T04:08:29.325Z,12.09
2018-04-19T04:09:27.422Z,12.13
2018-04-19T04:10:27.668Z,12.12
2018-04-19T04:11:27.436Z,12.17
2018-04-19T04:12:27.664Z,12.09
2018-04-19T04:13:27.413Z,12.15
2018-04-19T04:14:27.711Z,12.18
2018-04-19T04:15:27.415Z,12.1
2018-04-19T04:16:27.812Z,12.12
2018-04-19T04:17:27.404Z,12.07
2018-04-19T04:18:27.651Z,12.12
2018-04-19T04:19:27.406Z,12.17
2018-04-19T04:20:27.650Z,12.04
2018-04-19T04:21:27.394Z,12.13
2018-04-19T04:22:27.385Z,12.15
2018-04-19T04:23:27.138Z,12.15
2018-04-19T04:24:27.411Z,12.12
2018-04-19T04:25:27.730Z,12.15
2018-04-19T04:26:27.628Z,12.2
2018-04-19T04:27:27.379Z,12.22
2018-04-19T04:28:27.620Z,12.2
2018-04-19T04:29:27.676Z,12.21
2018-04-19T04:30:27.368Z,12.17
2018-04-19T04:31:27.745Z,12.12
2018-04-19T04:32:27.366Z,12.15
2018-04-19T04:33:27.616Z,12.1
2018-04-19T04:34:27.356Z,12.12
2018-04-19T04:35:27.364Z,12.13
2018-04-19T04:36:27.349Z,12.12
2018-04-19T04:37:27.600Z,12.13
2018-04-19T04:38:29.510Z,12.13
2018-04-19T04:39:27.350Z,12.2
2018-04-19T04:40:27.413Z,12.12
2018-04-19T04:41:27.348Z,12.22
2018-04-19T04:42:27.592Z,12.21
2018-04-19T04:43:27.579Z,12.15
2018-04-19T04:44:27.598Z,12.29
2018-04-19T04:45:27.589Z,12.43
2018-04-19T04:46:27.087Z,12.42
2018-04-19T04:47:27.578Z,12.4
2018-04-19T04:48:27.327Z,12.45
2018-04-19T04:49:27.565Z,12.46
2018-04-19T04:50:27.576Z,12.49
2018-04-19T04:51:27.310Z,12.46
2018-04-19T04:52:27.552Z,12.45
2018-04-19T04:53:27.557Z,12.5
2018-04-19T04:54:27.593Z,12.61
2018-04-19T04:55:27.546Z,12.64
2018-04-19T04:56:27.546Z,12.72
2018-04-19T04:57:27.540Z,12.8
2018-04-19T04:58:27.543Z,13
2018-04-19T04:59:27.583Z,13.18
2018-04-19T05:00:27.584Z,13.39
2018-04-19T05:01:27.297Z,13.6
2018-04-19T05:02:27.534Z,13.71
2018-04-19T05:03:27.544Z,13.79
2018-04-19T05:04:27.537Z,14
2018-04-19T05:05:27.590Z,14.08
2018-04-19T05:06:27.288Z,14.25
2018-04-19T05:07:27.287Z,14.44
2018-04-19T05:08:27.778Z,14.6
2018-04-19T05:09:27.533Z,14.88
2018-04-19T05:10:27.328Z,15.15
2018-04-19T05:11:27.282Z,15.42
2018-04-19T05:12:27.534Z,15.72
2018-04-19T05:13:27.528Z,15.84
2018-04-19T05:14:27.638Z,16.04
2018-04-19T05:15:27.531Z,16.33
2018-04-19T05:16:27.544Z,16.6
2018-04-19T05:17:27.270Z,16.78
2018-04-19T05:18:27.520Z,16.93
2018-04-19T05:19:27.576Z,17.09
2018-04-19T05:20:27.449Z,17.19
2018-04-19T05:21:27.280Z,17.09
2018-04-19T05:22:27.270Z,17.02
2018-04-19T05:23:27.535Z,16.93
2018-04-19T05:24:27.523Z,16.83
2018-04-19T05:25:27.536Z,16.94
2018-04-19T05:26:27.288Z,16.71
2018-04-19T05:27:27.536Z,16.61
2018-04-19T05:28:27.536Z,16.47
2018-04-19T05:29:27.550Z,16.43
2018-04-19T05:30:27.528Z,16.2
2018-04-19T05:31:27.281Z,16.15
2018-04-19T05:32:27.292Z,16.01
2018-04-19T05:33:27.551Z,15.83
2018-04-19T05:34:27.540Z,15.77
2018-04-19T05:35:27.303Z,15.52
2018-04-19T05:36:27.285Z,15.57
2018-04-19T05:37:27.033Z,15.76
2018-04-19T05:38:27.289Z,15.86
2018-04-19T05:39:32.500Z,16.23
2018-04-19T05:40:27.095Z,16.51
2018-04-19T05:41:27.545Z,16.81
2018-04-19T05:42:27.293Z,17.16
2018-04-19T05:43:27.550Z,17.52
2018-04-19T05:44:27.607Z,18.04
2018-04-19T05:45:27.618Z,18.6
2018-04-19T05:46:27.558Z,19.07
2018-04-19T05:47:27.549Z,19.49
2018-04-19T05:48:27.555Z,19.95
2018-04-19T05:49:27.301Z,20.22
2018-04-19T05:50:27.557Z,20.41
2018-04-19T05:51:27.306Z,20.5
2018-04-19T05:52:27.560Z,20.39
2018-04-19T05:53:27.560Z,20.34
2018-04-19T05:54:27.761Z,20.55
2018-04-19T05:55:27.570Z,20.51
2018-04-19T05:56:27.321Z,20.58
2018-04-19T05:57:27.076Z,20.48
2018-04-19T05:58:27.585Z,20.48
2018-04-19T05:59:27.338Z,20.28
2018-04-19T06:00:27.580Z,20.24
2018-04-19T06:01:27.586Z,19.91
2018-04-19T06:02:27.336Z,19.52
2018-04-19T06:03:27.592Z,19.16
2018-04-19T06:04:27.101Z,18.88
2018-04-19T06:05:27.138Z,18.47
2018-04-19T06:06:27.099Z,18.15
2018-04-19T06:07:27.618Z,17.86
2018-04-19T06:08:27.648Z,17.48
2018-04-19T06:09:27.367Z,17.33
2018-04-19T06:10:28.072Z,17.15
2018-04-19T06:11:27.399Z,17.09
2018-04-19T06:12:27.629Z,17.05
2018-04-19T06:13:27.625Z,16.94
2018-04-19T06:23:10.184Z,19.33
2018-04-19T06:24:10.679Z,19.95
2018-04-19T06:25:11.741Z,20.5
2018-04-19T06:26:10.431Z,21.17
2018-04-19T06:27:10.446Z,21.51
2018-04-19T06:28:14.181Z,21.64
2018-04-19T06:29:10.677Z,21.5
2018-04-19T06:30:11.247Z,21.43
2018-04-19T06:31:10.435Z,21.24
2018-04-19T06:32:10.456Z,21.4
2018-04-19T06:33:10.436Z,21.57
2018-04-19T06:34:10.687Z,21.91
2018-04-19T06:35:11.566Z,22.26
2018-04-19T06:36:10.870Z,22.59
2018-04-19T06:37:10.709Z,22.73
2018-04-19T06:38:10.459Z,23.1
2018-04-19T06:39:10.482Z,23.46
2018-04-19T06:40:11.607Z,23.63
2018-04-19T06:41:10.244Z,23.93
2018-04-19T06:42:10.238Z,24.2
2018-04-19T06:43:10.733Z,24.4
2018-04-19T06:44:10.788Z,24.7
2018-04-19T06:45:12.092Z,24.69
2018-04-19T06:46:10.748Z,24.68
2018-04-19T06:47:10.514Z,24.51
2018-04-19T06:48:10.758Z,24.58
2018-04-19T06:49:10.535Z,24.74
2018-04-19T06:50:11.245Z,24.81
2018-04-19T06:51:11.018Z,24.89
2018-04-19T06:52:10.549Z,25.23
2018-04-19T06:53:10.798Z,25.41
2018-04-19T06:54:10.556Z,25.55
2018-04-19T06:55:11.600Z,25.69
2018-04-19T06:56:10.816Z,25.81
2018-04-19T06:57:10.630Z,26.09
2018-04-19T06:58:12.081Z,26.29
2018-04-19T06:59:10.833Z,26.71
2018-04-19T07:00:11.645Z,27.2
2018-04-19T07:01:10.960Z,27.47
2018-04-19T07:02:10.615Z,27.74
2018-04-19T07:03:10.864Z,27.71
2018-04-19T07:04:10.888Z,27.77
2018-04-19T07:05:11.576Z,28.02
2018-04-19T07:06:10.888Z,27.95
2018-04-19T07:07:10.895Z,28.19
2018-04-19T07:08:10.907Z,28.56
2018-04-19T07:09:10.917Z,28.91
2018-04-19T07:10:12.146Z,29.02
2018-04-19T07:11:10.677Z,28.97
2018-04-19T07:12:10.950Z,29.07
2018-04-19T07:13:10.945Z,29.27
2018-04-19T07:14:10.954Z,29.23
2018-04-19T07:15:11.693Z,29.2
2018-04-19T07:16:10.719Z,29.29
2018-04-19T07:17:10.983Z,29.34
2018-04-19T07:18:10.734Z,29.38
2018-04-19T07:19:10.757Z,29.36
2018-04-19T07:20:12.201Z,29.51
2018-04-19T07:21:10.771Z,29.61
2018-04-19T07:22:10.521Z,29.78
2018-04-19T07:23:10.776Z,29.88
2018-04-19T07:24:10.783Z,29.76
2018-04-19T07:25:11.958Z,28.98
2018-04-19T07:26:11.077Z,28.29
2018-04-19T07:27:11.070Z,27.29
2018-04-19T07:28:11.085Z,26.53
2018-04-19T07:29:11.086Z,25.85
2018-04-19T07:30:11.720Z,24.93
2018-04-19T07:31:11.107Z,24.33
2018-04-19T07:32:11.232Z,23.81
2018-04-19T07:33:11.112Z,23.36
2018-04-19T07:34:10.858Z,23.03
2018-04-19T07:35:11.736Z,22.96
2018-04-19T07:36:10.872Z,23.18
2018-04-19T07:37:11.129Z,23.4
2018-04-19T07:38:11.145Z,23.4
2018-04-19T07:39:11.371Z,23.28
2018-04-19T07:40:12.102Z,22.96
2018-04-19T07:41:11.149Z,22.83
2018-04-19T07:42:11.157Z,22.73
2018-04-19T07:43:10.920Z,22.88
2018-04-19T07:44:10.927Z,23.36
2018-04-19T07:45:12.131Z,23.96
2018-04-19T07:46:11.299Z,24.78
2018-04-19T07:47:10.939Z,25.44
2018-04-19T07:48:11.195Z,26.03
2018-04-19T07:49:11.195Z,26.66
2018-04-19T07:50:12.305Z,27.02
2018-04-19T07:51:10.958Z,27.37
2018-04-19T07:52:11.225Z,27.65
2018-04-19T07:53:11.223Z,28.04
2018-04-19T07:54:11.230Z,28.2
2018-04-19T07:55:11.973Z,28.26
2018-04-19T07:56:11.010Z,28.26
2018-04-19T07:57:11.014Z,28.51
2018-04-19T07:58:11.264Z,28.33
2018-04-19T07:59:11.264Z,28.19
2018-04-19T08:00:12.090Z,28.17
2018-04-19T08:01:11.034Z,28.27
2018-04-19T08:02:11.037Z,28.25
2018-04-19T08:03:11.043Z,28.45
2018-04-19T08:04:11.052Z,28.42
2018-04-19T08:05:12.149Z,28.44
2018-04-19T08:06:11.320Z,28.54
2018-04-19T08:07:11.322Z,28.64
2018-04-19T08:08:11.082Z,28.91
2018-04-19T08:09:11.330Z,29.05
2018-04-19T08:10:12.327Z,29.23
2018-04-19T08:11:11.366Z,29.63
2018-04-19T08:12:11.366Z,29.75
2018-04-19T08:13:11.122Z,29.84
2018-04-19T08:14:11.579Z,29.97
2018-04-19T08:15:12.085Z,30.16
2018-04-19T08:16:11.139Z,30.13
2018-04-19T08:17:11.385Z,30.25
2018-04-19T08:18:11.410Z,30.16
2018-04-19T08:19:11.409Z,29.86
2018-04-19T08:20:12.716Z,29.68
2018-04-19T08:21:11.430Z,29.69
2018-04-19T08:22:11.449Z,29.72
2018-04-19T08:23:11.194Z,29.53
2018-04-19T08:24:11.460Z,29.79
2018-04-19T08:25:12.184Z,30.12
2018-04-19T08:26:10.981Z,30.28
2018-04-19T08:27:10.981Z,30.31
2018-04-19T08:28:11.479Z,30.18
2018-04-19T08:29:11.486Z,30
2018-04-19T08:30:11.916Z,29.9
2018-04-19T08:31:11.262Z,29.81
2018-04-19T08:32:11.275Z,29.78
2018-04-19T08:33:11.272Z,29.79
2018-04-19T08:34:11.533Z,29.6
2018-04-19T08:35:12.795Z,29.27
2018-04-19T08:36:11.592Z,28.86
2018-04-19T08:37:11.564Z,28.17
2018-04-19T08:38:11.569Z,27.33
2018-04-19T08:39:11.323Z,26.9
2018-04-19T08:40:12.682Z,26.22
2018-04-19T08:41:11.343Z,25.83
2018-04-19T08:42:11.644Z,25.47
2018-04-19T08:43:11.608Z,25.21
2018-04-19T08:44:13.466Z,25.01
2018-04-19T08:45:11.954Z,24.88
2018-04-19T08:46:11.386Z,24.7
2018-04-19T08:47:11.381Z,24.55
2018-04-19T08:48:11.656Z,24.47
2018-04-19T08:49:11.403Z,24.38
2018-04-19T08:50:12.923Z,24.33
2018-04-19T08:51:11.663Z,24.3
2018-04-19T08:52:11.662Z,24.32
2018-04-19T08:53:11.670Z,24.32
2018-04-19T08:54:11.683Z,24.26
2018-04-19T08:55:12.923Z,24.33
2018-04-19T08:56:11.447Z,24.26
2018-04-19T08:57:11.715Z,24.18
2018-04-19T08:58:11.705Z,24.17
2018-04-19T08:59:15.666Z,24.05
2018-04-19T09:00:13.164Z,24.01
2018-04-19T09:01:11.721Z,23.93
2018-04-19T09:02:11.726Z,23.92
2018-04-19T09:03:11.721Z,24.05
2018-04-19T09:04:11.742Z,24.18
2018-04-19T09:05:12.923Z,24.29
2018-04-19T09:06:11.751Z,24.26
2018-04-19T09:07:11.746Z,24.32
2018-04-19T09:08:11.515Z,24.29
2018-04-19T09:09:11.764Z,24.33
2018-04-19T09:10:12.726Z,24.33
2018-04-19T09:11:11.774Z,24.35
2018-04-19T09:12:11.588Z,24.48
2018-04-19T09:13:11.586Z,24.35
2018-04-19T09:14:11.286Z,24.33
2018-04-19T09:15:12.307Z,24.32
2018-04-19T09:16:11.807Z,24.42
2018-04-19T09:17:11.548Z,24.48
2018-04-19T09:18:11.558Z,24.51
2018-04-19T09:19:11.827Z,24.6
2018-04-19T09:20:12.742Z,24.69
2018-04-19T09:21:11.582Z,24.68
2018-04-19T09:22:11.874Z,24.63
2018-04-19T09:23:11.644Z,24.65
2018-04-19T09:24:11.593Z,24.63
2018-04-19T09:25:12.494Z,24.73
2018-04-19T09:26:11.588Z,24.73
2018-04-19T09:27:11.846Z,24.65
2018-04-19T09:28:11.607Z,24.81
2018-04-19T09:29:11.849Z,24.7
2018-04-19T09:30:13.003Z,24.68
2018-04-19T09:31:11.875Z,24.68
2018-04-19T09:32:11.619Z,24.74
2018-04-19T09:33:11.622Z,24.7
2018-04-19T09:34:11.656Z,24.88
2018-04-19T09:35:13.033Z,24.95
2018-04-19T09:36:11.654Z,25.07
2018-04-19T09:37:11.887Z,25.08
2018-04-19T09:38:11.655Z,24.98
2018-04-19T09:39:11.667Z,24.98
2018-04-19T09:40:12.619Z,24.96
2018-04-19T09:41:11.911Z,25.06
2018-04-19T09:42:11.914Z,24.99
2018-04-19T09:43:11.916Z,24.88
2018-04-19T09:44:11.937Z,24.78
2018-04-19T09:45:18.305Z,24.88
2018-04-19T09:46:11.441Z,24.84
2018-04-19T09:47:11.684Z,24.8
2018-04-19T09:48:11.701Z,24.89
2018-04-19T09:49:11.978Z,24.92
2018-04-19T09:50:13.296Z,24.96
2018-04-19T09:51:11.712Z,24.99
2018-04-19T09:52:11.712Z,24.92
2018-04-19T09:53:11.712Z,24.96
2018-04-19T09:54:12.080Z,25.01
2018-04-19T09:55:12.317Z,24.98
2018-04-19T09:56:11.974Z,25.04
2018-04-19T09:57:11.978Z,25.03
2018-04-19T09:58:11.739Z,25.08
2018-04-19T09:59:11.994Z,25.11
2018-04-19T10:00:12.352Z,25.13
2018-04-19T10:01:12.018Z,25.13
2018-04-19T10:02:11.998Z,25.13
2018-04-19T10:03:12.032Z,25.03
2018-04-19T10:04:12.157Z,24.96
2018-04-19T10:05:13.368Z,25.04
2018-04-19T10:06:12.022Z,25.1
2018-04-19T10:07:11.777Z,25.11
2018-04-19T10:08:11.786Z,25.22
2018-04-19T10:09:12.051Z,25.23
2018-04-19T10:10:13.249Z,25.23
2018-04-19T10:11:12.059Z,25.33
2018-04-19T10:12:12.047Z,25.41
2018-04-19T10:13:11.809Z,25.33
2018-04-19T10:14:12.064Z,25.25
2018-04-19T10:15:13.134Z,25.29
2018-04-19T10:16:12.183Z,25.23
2018-04-19T10:17:12.078Z,25.28
2018-04-19T10:18:11.579Z,25.26
2018-04-19T10:19:11.843Z,25.26
2018-04-19T10:20:13.350Z,25.23
2018-04-19T10:21:11.851Z,25.18
2018-04-19T10:52:48.691Z,25.66
2018-04-19T10:53:47.632Z,25.62
2018-04-19T10:54:47.633Z,25.58
2018-04-19T10:55:47.631Z,25.59
2018-04-19T10:56:47.385Z,25.62
2018-04-19T10:57:47.400Z,25.5
2018-04-19T10:58:47.386Z,25.51
2018-04-19T10:59:47.390Z,25.58
2018-04-19T11:00:47.635Z,25.68
2018-04-19T11:01:47.153Z,25.72
2018-04-19T11:02:47.639Z,25.85
2018-04-19T11:03:47.646Z,25.78
2018-04-19T11:04:47.422Z,25.87
2018-04-19T11:05:47.651Z,25.9
2018-04-19T11:06:47.667Z,25.9
2018-04-19T11:07:47.668Z,25.96
2018-04-19T11:08:47.670Z,25.91
2018-04-19T11:09:47.666Z,25.9
2018-04-19T11:10:47.431Z,26.09
2018-04-19T11:11:47.485Z,26.05
2018-04-19T11:12:47.690Z,26.03
2018-04-19T11:13:47.442Z,26.1
2018-04-19T11:14:47.684Z,26.02
2018-04-19T11:15:47.702Z,25.99
2018-04-19T11:16:47.695Z,25.91
2018-04-19T11:17:47.447Z,25.83
2018-04-19T11:18:47.481Z,25.83
2018-04-19T11:19:47.711Z,25.84
2018-04-19T11:20:47.477Z,26.02
2018-04-19T11:21:47.242Z,25.98
2018-04-19T11:22:48.037Z,26.07
2018-04-19T11:23:47.482Z,26.07
2018-04-19T11:24:47.738Z,26.25
2018-04-19T11:25:47.500Z,26.23
2018-04-19T11:26:47.757Z,26.25
2018-04-19T11:27:47.502Z,26.25
2018-04-19T11:28:47.747Z,26.22
2018-04-19T11:29:47.511Z,26.25
2018-04-19T11:30:47.537Z,26.23
2018-04-19T11:31:47.272Z,26.34
2018-04-19T11:32:47.543Z,26.33
2018-04-19T11:33:47.279Z,26.33
2018-04-19T11:34:47.784Z,26.37
2018-04-19T11:35:47.540Z,26.44
2018-04-19T11:36:47.632Z,26.45
2018-04-19T11:37:51.849Z,26.45
2018-04-19T11:38:47.558Z,26.52
2018-04-19T11:39:47.558Z,26.55
2018-04-19T11:40:47.845Z,26.55
2018-04-19T11:41:47.822Z,26.55
2018-04-19T11:42:47.567Z,26.52
2018-04-19T11:43:47.345Z,26.48
2018-04-19T11:44:47.852Z,26.48
2018-04-19T11:45:47.852Z,26.43
2018-04-19T11:46:47.850Z,26.47
2018-04-19T11:47:47.845Z,26.56
2018-04-19T11:48:47.861Z,26.48
2018-04-19T11:49:47.866Z,26.48
2018-04-19T11:50:47.869Z,26.47
2018-04-19T11:51:47.375Z,26.44
2018-04-19T11:52:47.876Z,26.41
2018-04-19T11:53:47.635Z,26.47
2018-04-19T11:54:47.646Z,26.47
2018-04-19T11:55:47.639Z,26.53
2018-04-19T11:56:47.897Z,26.53
2018-04-19T11:57:47.900Z,26.68
2018-04-19T11:58:47.910Z,26.68
2018-04-19T11:59:47.921Z,26.71
2018-04-19T12:00:47.670Z,26.75
2018-04-19T12:01:47.928Z,26.81
2018-04-19T12:02:47.690Z,26.71
2018-04-19T12:03:47.933Z,26.7
2018-04-19T12:04:47.688Z,26.73
2018-04-19T12:05:47.940Z,26.7
2018-04-19T12:06:47.948Z,26.81
2018-04-19T12:07:47.952Z,26.77
2018-04-19T12:08:47.965Z,26.84
2018-04-19T12:09:47.718Z,26.78
2018-04-19T12:10:47.969Z,26.8
2018-04-19T12:11:47.976Z,26.89
2018-04-19T12:12:47.974Z,26.92
2018-04-19T12:13:47.773Z,26.96
2018-04-19T12:14:47.993Z,26.97
2018-04-19T12:15:48.003Z,26.92
2018-04-19T12:16:48.023Z,26.81
2018-04-19T12:17:47.756Z,26.75
2018-04-19T12:18:48.082Z,26.71
2018-04-19T12:19:48.024Z,26.66
2018-04-19T12:20:48.028Z,26.6
2018-04-19T12:21:48.049Z,26.65
2018-04-19T12:22:47.787Z,26.68
2018-04-19T12:23:50.407Z,26.75
2018-04-19T12:24:48.056Z,26.73
2018-04-19T12:25:47.821Z,26.81
2018-04-19T12:26:48.071Z,26.77
2018-04-19T12:27:47.804Z,26.74
2018-04-19T12:28:47.817Z,26.75
2018-04-19T12:29:48.093Z,26.65
2018-04-19T12:30:47.828Z,26.53
2018-04-19T12:31:47.583Z,26.48
2018-04-19T12:32:48.092Z,26.45
2018-04-19T12:33:47.851Z,26.37
2018-04-19T12:34:48.106Z,26.28
2018-04-19T12:35:47.848Z,26.31
2018-04-19T12:36:47.854Z,26.31
2018-04-19T12:37:48.170Z,26.33
2018-04-19T12:38:48.142Z,26.38
2018-04-19T12:39:48.125Z,26.53
2018-04-19T12:40:48.123Z,26.47
2018-04-19T12:41:48.146Z,26.55
2018-04-19T12:42:48.146Z,26.66
2018-04-19T12:43:47.898Z,26.68
2018-04-19T12:44:47.661Z,26.65
2018-04-19T12:45:47.903Z,26.63
2018-04-19T12:46:47.914Z,26.55
2018-04-19T12:47:48.163Z,26.52
2018-04-19T12:48:47.922Z,26.48
2018-04-19T12:49:47.921Z,26.53
2018-04-19T12:50:48.184Z,26.63
2018-04-19T12:51:47.690Z,26.7
2018-04-19T12:52:47.693Z,26.75
2018-04-19T12:53:51.145Z,26.84
2018-04-19T12:54:48.203Z,26.73
2018-04-19T12:55:48.200Z,26.68
2018-04-19T12:56:47.716Z,26.68
2018-04-19T12:57:48.210Z,26.68
2018-04-19T12:58:48.220Z,26.59
2018-04-19T12:59:47.719Z,26.63
2018-04-19T13:00:48.230Z,26.7
2018-04-19T13:01:47.980Z,26.77
2018-04-19T13:02:47.985Z,26.73
2018-04-19T13:03:48.240Z,26.7
2018-04-19T13:04:48.246Z,26.74
2018-04-19T13:05:48.262Z,26.88
2018-04-19T13:06:48.266Z,26.92
2018-04-19T13:07:48.261Z,26.95
2018-04-19T13:08:48.280Z,26.92
2018-04-19T13:09:48.274Z,26.96
2018-04-19T13:10:48.287Z,26.84
2018-04-19T13:11:48.330Z,26.9
2018-04-19T13:12:48.085Z,26.96
2018-04-19T13:13:48.052Z,27.11
2018-04-19T13:14:47.797Z,26.95
2018-04-19T13:15:48.305Z,27
2018-04-19T13:16:48.063Z,27.08
2018-04-19T13:17:48.065Z,27.1
2018-04-19T13:18:48.070Z,26.95
2018-04-19T13:19:48.326Z,26.92
2018-04-19T13:20:48.366Z,27
2018-04-19T13:21:48.337Z,27
2018-04-19T13:22:48.343Z,26.93
2018-04-19T13:23:48.383Z,26.97
2018-04-19T13:24:48.368Z,26.95
2018-04-19T13:25:48.518Z,27.02
2018-04-19T13:26:48.112Z,26.92
2018-04-19T13:27:48.115Z,26.97
2018-04-19T13:28:48.127Z,26.95
2018-04-19T13:29:47.886Z,27
2018-04-19T13:30:48.385Z,27.07
2018-04-19T13:31:48.402Z,27.21
2018-04-19T13:32:48.405Z,27.17
2018-04-19T13:33:48.403Z,27.14
2018-04-19T13:34:48.420Z,27.05
2018-04-19T13:35:48.409Z,27.03
2018-04-19T13:36:48.420Z,26.99
2018-04-19T13:37:48.429Z,27.05
2018-04-19T13:38:48.427Z,27.1
2018-04-19T13:39:49.532Z,27.11
2018-04-19T13:40:48.492Z,27.3
2018-04-19T13:41:48.446Z,27.26